Time;durP1;ratioP1;P1;durP2;ratioP2;P2;SDS_P1;SDS_P2;PMS_P1;PMS_P2;Temp;Humidity;BMP_temperature;BMP_pressure;BME280_temperature;BME280_humidity;BME280_pressure;Samples;Min_cycle;Max_cycle;Signal;HPM_P1;HPM_P2
2021/10/10 00:00:50;;;;;;;32.35;20.60;;;;;;;9.51;100.00;102895.28;4805135;29;20081;-82
2021/10/10 00:03:16;;;;;;;34.55;20.45;;;;;;;9.48;100.00;102892.84;4814572;29;20407;-82
2021/10/10 00:05:41;;;;;;;37.08;20.38;;;;;;;9.47;100.00;102899.19;4831459;29;20078;-83
2021/10/10 00:08:07;;;;;;;33.45;19.85;;;;;;;9.35;100.00;102871.63;4836213;29;20048;-82
2021/10/10 00:10:33;;;;;;;29.17;19.67;;;;;;;9.29;100.00;102867.66;4835848;29;20037;-82
2021/10/10 00:12:59;;;;;;;31.88;20.73;;;;;;;9.43;100.00;102884.34;4835971;29;20030;-81
2021/10/10 00:15:25;;;;;;;31.58;21.08;;;;;;;9.45;100.00;102879.69;4834976;29;20041;-82
2021/10/10 00:17:50;;;;;;;38.85;21.33;;;;;;;9.27;100.00;102856.22;4818822;29;20102;-82
2021/10/10 00:20:17;;;;;;;30.15;20.88;;;;;;;9.44;100.00;102877.97;4834185;29;20034;-83
2021/10/10 00:22:42;;;;;;;34.95;21.33;;;;;;;9.45;100.00;102871.63;4817888;29;20030;-82
2021/10/10 00:25:09;;;;;;;32.42;21.48;;;;;;;9.46;100.00;102878.69;4817692;29;20049;-82
2021/10/10 00:27:35;;;;;;;36.63;21.33;;;;;;;9.45;100.00;102863.56;4817116;29;20022;-82
2021/10/10 00:30:03;;;;;;;32.33;21.55;;;;;;;9.51;100.00;102869.25;4817093;29;20030;-82
2021/10/10 00:32:29;;;;;;;41.38;22.17;;;;;;;9.53;100.00;102867.22;4834058;29;20026;-81
2021/10/10 00:34:55;;;;;;;34.45;21.98;;;;;;;9.56;100.00;102863.44;4815139;29;20038;-82
2021/10/10 00:37:20;;;;;;;36.38;21.92;;;;;;;9.50;100.00;102845.19;4801973;29;20030;-83
2021/10/10 00:39:46;;;;;;;39.65;22.65;;;;;;;9.56;100.00;102852.69;4821120;29;20038;-82
2021/10/10 00:42:11;;;;;;;40.92;22.95;;;;;;;9.63;100.00;102859.16;4818266;29;20034;-82
2021/10/10 00:44:38;;;;;;;47.53;22.98;;;;;;;9.68;100.00;102859.59;4819121;29;20089;-80
2021/10/10 00:47:04;;;;;;;37.47;22.52;;;;;;;9.63;100.00;102851.09;4822923;29;20038;-82
2021/10/10 00:49:29;;;;;;;34.10;21.25;;;;;;;9.71;100.00;102859.31;4824102;29;20038;-82
2021/10/10 00:51:57;;;;;;;35.63;21.95;;;;;;;9.67;100.00;102841.78;4837003;29;20203;-82
2021/10/10 00:54:23;;;;;;;34.95;21.55;;;;;;;9.75;100.00;102851.81;4805203;29;20030;-83
2021/10/10 00:56:53;;;;;;;39.47;20.75;;;;;;;9.78;100.00;102849.69;4819673;29;20039;-82
2021/10/10 00:59:22;;;;;;;31.67;21.33;;;;;;;9.67;100.00;102825.66;4804129;29;20051;-81
2021/10/10 01:01:51;;;;;;;35.63;20.85;;;;;;;9.74;100.00;102837.53;4813016;29;20350;-82
2021/10/10 01:04:17;;;;;;;37.10;19.45;;;;;;;9.77;100.00;102825.66;4824596;29;20041;-82
2021/10/10 01:06:43;;;;;;;35.00;18.65;;;;;;;9.90;100.00;102842.31;4804398;29;20122;-82
2021/10/10 01:09:11;;;;;;;31.10;18.77;;;;;;;9.97;100.00;102837.22;4813124;29;20043;-82
2021/10/10 01:11:37;;;;;;;28.95;18.67;;;;;;;9.89;100.00;102821.78;4814055;29;20442;-83
2021/10/10 01:14:04;;;;;;;28.20;18.17;;;;;;;10.04;100.00;102830.25;4838197;29;20038;-82
2021/10/10 01:16:29;;;;;;;36.05;18.25;;;;;;;9.94;100.00;102816.00;4821674;29;20046;-82
2021/10/10 01:18:56;;;;;;;33.80;17.67;;;;;;;10.06;100.00;102831.78;4838075;29;20038;-83
2021/10/10 01:21:21;;;;;;;34.05;17.65;;;;;;;10.01;100.00;102812.56;4820646;29;20235;-83
2021/10/10 01:23:48;;;;;;;30.92;17.63;;;;;;;10.11;100.00;102818.75;4821246;29;20099;-82
2021/10/10 01:26:13;;;;;;;26.88;17.33;;;;;;;10.11;100.00;102823.28;4835201;29;20022;-82
2021/10/10 01:28:39;;;;;;;32.03;18.23;;;;;;;10.10;100.00;102817.06;4820780;29;20071;-82
2021/10/10 01:31:04;;;;;;;31.23;17.10;;;;;;;10.11;100.00;102815.22;4821234;29;20071;-83
2021/10/10 01:33:33;;;;;;;27.35;17.42;;;;;;;10.11;100.00;102816.06;4838015;29;20038;-82
2021/10/10 01:35:59;;;;;;;29.25;16.58;;;;;;;10.11;100.00;102807.16;4824306;29;20049;-82
2021/10/10 01:38:24;;;;;;;27.30;17.15;;;;;;;10.15;100.00;102813.91;4843983;29;20030;-83
2021/10/10 01:40:49;;;;;;;32.65;17.45;;;;;;;10.18;100.00;102810.09;4849967;29;20025;-83
2021/10/10 01:43:15;;;;;;;27.30;15.82;;;;;;;10.20;100.00;102802.72;4847723;29;20034;-83
2021/10/10 01:45:41;;;;;;;27.27;16.05;;;;;;;10.12;100.00;102787.31;4804945;29;20071;-82
2021/10/10 01:48:06;;;;;;;30.92;16.42;;;;;;;10.21;100.00;102799.88;4837627;29;20034;-82
2021/10/10 01:50:33;;;;;;;30.10;16.80;;;;;;;10.18;100.00;102797.50;4838451;29;20034;-82
2021/10/10 01:52:59;;;;;;;25.33;15.48;;;;;;;10.27;100.00;102810.09;4823796;29;20082;-81
2021/10/10 01:55:24;;;;;;;29.73;15.63;;;;;;;10.25;100.00;102798.59;4815454;29;20600;-82
2021/10/10 01:57:50;;;;;;;27.77;15.18;;;;;;;10.24;100.00;102794.22;4802162;29;20041;-81
2021/10/10 02:00:16;;;;;;;24.65;15.35;;;;;;;10.26;100.00;102792.22;4818470;29;20066;-81
2021/10/10 02:02:41;;;;;;;21.35;13.77;;;;;;;10.21;100.00;102774.84;4819129;29;20057;-82
2021/10/10 02:05:08;;;;;;;32.78;15.10;;;;;;;10.30;100.00;102782.91;4836781;29;20022;-82
2021/10/10 02:07:35;;;;;;;26.80;13.95;;;;;;;10.30;100.00;102792.81;4836063;29;20035;-82
2021/10/10 02:10:01;;;;;;;23.08;14.55;;;;;;;10.26;100.00;102776.09;4804713;29;20045;-81
2021/10/10 02:12:28;;;;;;;27.83;15.18;;;;;;;10.31;100.00;102779.19;4820494;29;20588;-82
2021/10/10 02:14:53;;;;;;;22.25;14.63;;;;;;;10.15;100.00;102745.81;4822213;29;20026;-82
2021/10/10 02:17:19;;;;;;;29.40;14.07;;;;;;;10.16;100.00;102744.81;4806496;29;20045;-82
2021/10/10 02:19:45;;;;;;;22.45;14.18;;;;;;;10.21;100.00;102758.69;4790150;29;20039;-82
2021/10/10 02:22:10;;;;;;;31.80;15.10;;;;;;;10.20;100.00;102757.84;4805141;29;20059;-82
2021/10/10 02:24:36;;;;;;;26.60;13.55;;;;;;;10.08;100.00;102734.81;4802132;29;20011;-82
2021/10/10 02:27:01;;;;;;;23.38;14.10;;;;;;;10.28;100.00;102765.19;4795223;29;20189;-82
2021/10/10 02:29:27;;;;;;;22.65;13.88;;;;;;;10.23;100.00;102756.69;4776535;29;20084;-82
2021/10/10 02:31:53;;;;;;;23.70;14.57;;;;;;;10.24;100.00;102750.31;4823089;29;20083;-81
2021/10/10 02:34:18;;;;;;;22.05;13.70;;;;;;;10.21;100.00;102746.06;4822351;29;20035;-82
2021/10/10 02:36:45;;;;;;;24.92;14.55;;;;;;;10.18;100.00;102740.16;4838098;29;20346;-83
2021/10/10 02:39:11;;;;;;;25.92;14.35;;;;;;;10.28;100.00;102744.50;4841655;29;20030;-82
2021/10/10 02:41:37;;;;;;;23.83;14.45;;;;;;;10.29;100.00;102742.66;4845492;29;20037;-83
2021/10/10 02:44:03;;;;;;;22.45;14.88;;;;;;;10.24;100.00;102740.41;4842648;29;20123;-82
2021/10/10 02:46:29;;;;;;;25.13;15.45;;;;;;;10.09;100.00;102712.28;4830719;29;20051;-82
2021/10/10 02:48:55;;;;;;;30.25;15.20;;;;;;;10.25;100.00;102730.47;4826924;29;20035;-83
2021/10/10 02:51:20;;;;;;;28.88;15.88;;;;;;;10.20;100.00;102730.94;4809474;29;20030;-82
2021/10/10 02:53:45;;;;;;;24.60;14.55;;;;;;;10.16;100.00;102729.53;4823290;29;20031;-82
2021/10/10 02:56:11;;;;;;;30.98;14.88;;;;;;;10.05;100.00;102717.13;4827948;29;20034;-82
2021/10/10 02:58:36;;;;;;;28.02;15.50;;;;;;;10.05;100.00;102735.09;4826914;29;20058;-82
2021/10/10 03:01:02;;;;;;;27.48;14.38;;;;;;;10.02;100.00;102727.34;4838475;29;20042;-83
2021/10/10 03:03:27;;;;;;;22.17;14.35;;;;;;;9.97;100.00;102732.31;4807192;29;20035;-82
2021/10/10 03:05:53;;;;;;;24.45;14.02;;;;;;;9.84;100.00;102703.06;4819467;29;20082;-82
2021/10/10 03:08:18;;;;;;;26.05;14.00;;;;;;;9.88;100.00;102721.44;4821878;29;20073;-83
2021/10/10 03:10:44;;;;;;;23.50;13.90;;;;;;;9.83;100.00;102717.50;4835385;29;20110;-82
2021/10/10 03:13:09;;;;;;;27.33;12.77;;;;;;;9.79;100.00;102711.56;4817860;29;20086;-80
2021/10/10 03:15:36;;;;;;;27.92;12.57;;;;;;;9.59;100.00;102683.06;4833090;29;20095;-83
2021/10/10 03:18:02;;;;;;;21.17;12.10;;;;;;;9.70;100.00;102704.41;4819751;29;20038;-82
2021/10/10 03:20:28;;;;;;;22.25;12.15;;;;;;;9.68;100.00;102694.78;4818300;29;20090;-83
2021/10/10 03:22:53;;;;;;;19.98;11.73;;;;;;;9.55;100.00;102687.88;4802925;29;20118;-81
2021/10/10 03:25:18;;;;;;;19.70;12.10;;;;;;;9.61;100.00;102699.91;4835426;29;20122;-82
2021/10/10 03:27:44;;;;;;;18.83;10.98;;;;;;;9.46;100.00;102666.41;4803573;29;20087;-82
2021/10/10 03:30:11;;;;;;;18.35;11.50;;;;;;;9.44;100.00;102673.75;4835866;29;20094;-82
2021/10/10 03:32:36;;;;;;;23.52;11.52;;;;;;;9.38;100.00;102659.94;4817717;29;20500;-82
2021/10/10 03:35:03;;;;;;;23.20;10.90;;;;;;;9.46;100.00;102677.16;4819545;29;20038;-82
2021/10/10 03:37:28;;;;;;;18.00;9.50;;;;;;;9.43;100.00;102674.78;4834250;29;20034;-82
2021/10/10 03:39:54;;;;;;;22.70;10.32;;;;;;;9.36;100.00;102663.75;4818826;29;20034;-82
2021/10/10 03:42:20;;;;;;;18.83;10.00;;;;;;;9.39;100.00;102672.38;4803684;29;20107;-82
2021/10/10 03:44:46;;;;;;;22.25;10.07;;;;;;;9.40;100.00;102671.41;4803153;29;20045;-83
2021/10/10 03:47:14;;;;;;;23.10;10.95;;;;;;;9.39;100.00;102668.84;4799830;29;20104;-82
2021/10/10 03:49:40;;;;;;;22.90;10.18;;;;;;;9.39;100.00;102671.53;4802782;29;20119;-82
2021/10/10 03:52:05;;;;;;;25.33;10.93;;;;;;;9.21;100.00;102639.22;4802612;29;20739;-82
2021/10/10 03:57:20;;;;;;;21.98;10.57;;;;;;;9.28;100.00;102655.59;4801596;29;20118;-80
2021/10/10 03:59:49;;;;;;;16.05;11.10;;;;;;;9.27;100.00;102657.44;4798833;29;20160;-82
2021/10/10 04:02:14;;;;;;;17.80;10.77;;;;;;;9.26;100.00;102647.66;4814931;29;20038;-81
2021/10/10 04:04:40;;;;;;;21.88;10.93;;;;;;;9.13;100.00;102622.94;4804316;29;20050;-82
2021/10/10 04:07:06;;;;;;;20.60;10.80;;;;;;;9.07;100.00;102626.22;4832027;29;20042;-82
2021/10/10 04:09:32;;;;;;;18.25;11.07;;;;;;;9.12;100.00;102634.69;4793123;29;20499;-83
2021/10/10 04:11:58;;;;;;;20.33;11.52;;;;;;;9.04;100.00;102619.31;4783993;29;20035;-82
2021/10/10 04:14:23;;;;;;;17.88;11.38;;;;;;;9.13;100.00;102625.63;4828320;29;20075;-82
2021/10/10 04:16:48;;;;;;;23.58;12.05;;;;;;;9.13;100.00;102625.63;4836867;29;20026;-82
2021/10/10 04:19:14;;;;;;;24.25;12.20;;;;;;;9.13;100.00;102622.94;4804066;29;20034;-82
2021/10/10 04:21:39;;;;;;;21.83;11.57;;;;;;;9.12;100.00;102622.13;4812078;29;20054;-82
2021/10/10 04:24:05;;;;;;;15.30;10.82;;;;;;;9.03;100.00;102611.38;4812557;29;20039;-82
2021/10/10 04:26:30;;;;;;;20.92;12.13;;;;;;;9.00;100.00;102603.63;4802013;29;20042;-82
2021/10/10 04:28:55;;;;;;;20.65;11.38;;;;;;;8.93;100.00;102593.44;4801986;29;20053;-82
2021/10/10 04:31:21;;;;;;;19.42;11.27;;;;;;;8.99;100.00;102604.63;4818496;29;20461;-82
2021/10/10 04:33:46;;;;;;;23.02;11.10;;;;;;;9.02;100.00;102604.34;4818795;29;20122;-82
2021/10/10 04:36:12;;;;;;;24.08;11.60;;;;;;;8.95;100.00;102596.00;4799699;29;20504;-81
2021/10/10 04:38:37;;;;;;;19.15;11.10;;;;;;;8.81;100.00;102575.84;4826219;29;20038;-83
2021/10/10 04:41:02;;;;;;;19.60;11.73;;;;;;;8.99;100.00;102610.84;4800877;29;20049;-82
2021/10/10 04:43:28;;;;;;;21.40;11.48;;;;;;;9.01;100.00;102603.50;4830210;29;20103;-83
2021/10/10 04:45:53;;;;;;;18.27;10.82;;;;;;;9.05;100.00;102594.16;4808985;29;20055;-82
2021/10/10 04:48:19;;;;;;;22.25;11.30;;;;;;;8.96;100.00;102572.69;4813663;29;20458;-82
2021/10/10 04:50:44;;;;;;;18.25;10.63;;;;;;;9.05;100.00;102587.94;4783592;29;20065;-82
2021/10/10 04:53:09;;;;;;;15.98;10.00;;;;;;;8.91;100.00;102565.94;4813193;29;20091;-82
2021/10/10 04:55:35;;;;;;;17.92;10.15;;;;;;;9.10;100.00;102581.13;4797932;29;20073;-81
2021/10/10 04:58:01;;;;;;;17.63;10.05;;;;;;;9.14;100.00;102582.53;4797810;29;20116;-81
2021/10/10 05:00:27;;;;;;;20.67;10.43;;;;;;;9.17;100.00;102578.69;4771611;29;20058;-82
2021/10/10 05:02:53;;;;;;;16.33;9.80;;;;;;;9.19;100.00;102576.72;4792320;29;20042;-81
2021/10/10 05:05:19;;;;;;;17.05;9.45;;;;;;;9.22;100.00;102570.22;4816303;29;20114;-82
2021/10/10 05:07:44;;;;;;;17.75;9.32;;;;;;;9.26;100.00;102579.66;4815456;29;20030;-82
2021/10/10 05:10:09;;;;;;;18.70;9.23;;;;;;;9.23;100.00;102555.78;4800491;29;20042;-81
2021/10/10 05:12:36;;;;;;;18.30;8.40;;;;;;;9.35;100.00;102570.72;4801864;29;20034;-81
2021/10/10 05:15:01;;;;;;;15.73;8.82;;;;;;;9.36;100.00;102564.34;4834917;29;20022;-82
2021/10/10 05:17:28;;;;;;;20.33;8.75;;;;;;;9.42;100.00;102569.13;4833550;29;20066;-82
2021/10/10 05:19:53;;;;;;;14.60;8.50;;;;;;;9.45;100.00;102559.94;4826333;29;20046;-81
2021/10/10 05:22:19;;;;;;;10.68;7.85;;;;;;;9.43;100.00;102552.00;4819672;29;20030;-83
2021/10/10 05:24:44;;;;;;;17.15;8.13;;;;;;;9.52;100.00;102559.19;4806129;29;20095;-83
2021/10/10 05:27:10;;;;;;;14.23;8.55;;;;;;;9.53;100.00;102560.03;4824749;29;20034;-82
2021/10/10 05:29:35;;;;;;;14.38;8.18;;;;;;;9.57;100.00;102553.34;4824422;29;20042;-82
2021/10/10 05:32:00;;;;;;;15.80;8.00;;;;;;;9.61;100.00;102546.72;4806291;29;20041;-81
2021/10/10 05:34:26;;;;;;;15.27;7.68;;;;;;;9.50;100.00;102528.91;4831134;29;20091;-81
2021/10/10 05:36:53;;;;;;;14.20;8.00;;;;;;;9.56;100.00;102533.69;4838040;29;20050;-82
2021/10/10 05:39:19;;;;;;;16.95;8.20;;;;;;;9.69;100.00;102544.09;4811240;29;20041;-82
2021/10/10 05:41:45;;;;;;;13.15;7.80;;;;;;;9.67;100.00;102529.09;4820887;29;20030;-82
2021/10/10 05:44:11;;;;;;;16.90;7.47;;;;;;;9.78;100.00;102531.59;4824603;29;20035;-83
2021/10/10 05:46:36;;;;;;;12.43;8.10;;;;;;;9.91;100.00;102539.31;4805341;29;20053;-82
2021/10/10 05:49:02;;;;;;;16.65;7.50;;;;;;;10.00;100.00;102539.25;4809399;29;20038;-83
2021/10/10 05:51:27;;;;;;;14.52;7.68;;;;;;;10.06;100.00;102535.91;4804959;29;20035;-82
2021/10/10 05:53:52;;;;;;;16.13;7.30;;;;;;;10.12;100.00;102538.00;4817063;29;20446;-82
2021/10/10 05:56:18;;;;;;;18.95;7.60;;;;;;;10.12;100.00;102529.91;4787041;29;20035;-83
2021/10/10 05:58:45;;;;;;;18.65;7.32;;;;;;;10.19;100.00;102535.53;4795840;29;20058;-83
2021/10/10 06:01:10;;;;;;;17.40;7.47;;;;;;;10.08;100.00;102500.81;4819407;29;20065;-81
2021/10/10 06:03:37;;;;;;;13.27;7.47;;;;;;;9.10;100.00;102323.31;4887610;24;20026;-83
2021/10/10 06:06:03;;;;;;;18.00;7.72;;;;;;;10.40;100.00;102535.25;4785898;30;20039;-83
2021/10/10 06:08:28;;;;;;;13.85;7.45;;;;;;;9.50;100.00;102382.97;4755407;30;20427;-83
2021/10/10 06:10:55;;;;;;;15.30;7.00;;;;;;;10.25;100.00;102485.66;4769872;30;20066;-82
2021/10/10 06:13:21;;;;;;;13.23;7.13;;;;;;;10.56;100.00;102543.47;4792447;30;20036;-83
2021/10/10 06:15:49;;;;;;;11.88;6.97;;;;;;;9.30;100.00;102317.81;4791712;30;20039;-84
2021/10/10 06:18:14;;;;;;;14.00;6.57;;;;;;;9.29;100.00;102316.97;4794185;30;20032;-82
2021/10/10 06:20:40;;;;;;;12.75;7.50;;;;;;;10.56;100.00;102508.47;4943408;24;20070;-83
2021/10/10 06:23:05;;;;;;;14.93;6.88;;;;;;;10.17;100.00;102437.19;4772401;30;20041;-82
2021/10/10 06:25:31;;;;;;;10.85;6.45;;;;;;;10.68;100.00;102519.81;4784155;30;20119;-83
2021/10/10 06:27:57;;;;;;;15.45;6.82;;;;;;;9.33;100.00;102301.38;4773733;30;20043;-82
2021/10/10 06:30:22;;;;;;;14.27;6.72;;;;;;;10.10;99.96;102429.72;4785282;30;20474;-82
2021/10/10 06:32:47;;;;;;;16.67;7.15;;;;;;;9.69;99.54;102353.25;4781764;30;20046;-81
2021/10/10 06:35:13;;;;;;;11.32;6.40;;;;;;;10.76;99.57;102514.50;4776255;30;20038;-81
2021/10/10 06:37:38;;;;;;;13.25;7.05;;;;;;;10.78;99.49;102509.78;4760766;30;20043;-81
2021/10/10 06:40:05;;;;;;;12.48;6.32;;;;;;;10.04;99.28;102381.09;4764536;30;20054;-81
2021/10/10 06:42:30;;;;;;;13.52;7.13;;;;;;;10.69;99.23;102480.28;4780611;30;20045;-81
2021/10/10 06:44:55;;;;;;;12.02;6.95;;;;;;;10.87;99.14;102512.53;4769390;30;20089;-82
2021/10/10 06:47:21;;;;;;;12.20;6.68;;;;;;;10.87;98.86;102504.47;4788348;30;20070;-81
2021/10/10 06:49:46;;;;;;;13.85;6.75;;;;;;;10.87;98.99;102510.69;4766322;30;20042;-81
2021/10/10 06:52:13;;;;;;;12.50;6.70;;;;;;;10.88;98.49;102504.28;4766445;30;20066;-81
2021/10/10 06:54:39;;;;;;;17.83;6.88;;;;;;;10.89;98.74;102505.13;4749710;30;20039;-81
2021/10/10 06:57:05;;;;;;;16.52;7.22;;;;;;;10.90;98.90;102496.06;4765035;30;20122;-82
2021/10/10 06:59:30;;;;;;;11.73;6.63;;;;;;;10.85;98.59;102488.44;4779913;30;20027;-81
2021/10/10 07:01:57;;;;;;;14.23;6.78;;;;;;;10.93;98.98;102495.75;4766281;30;20035;-81
2021/10/10 07:04:23;;;;;;;13.35;6.65;;;;;;;10.80;98.87;102470.09;4784422;30;20077;-83
2021/10/10 07:06:49;;;;;;;17.83;6.95;;;;;;;10.85;98.79;102484.91;4770615;30;20031;-84
2021/10/10 07:09:14;;;;;;;13.55;6.28;;;;;;;10.86;98.77;102473.13;4776477;30;20050;-84
2021/10/10 07:11:40;;;;;;;11.27;6.57;;;;;;;10.87;98.46;102477.53;4778610;30;20133;-84
2021/10/10 07:14:06;;;;;;;11.77;6.47;;;;;;;10.95;98.74;102486.47;4744038;30;20040;-84
2021/10/10 07:16:34;;;;;;;13.48;6.90;;;;;;;10.83;98.30;102460.84;4791883;30;20035;-84
2021/10/10 07:19:00;;;;;;;13.10;6.90;;;;;;;10.82;98.45;102462.69;4791545;30;20012;-84
2021/10/10 07:26:37;;;;;;;15.35;6.55;;;;;;;10.96;97.05;102480.13;4784076;30;20043;-82
2021/10/10 07:29:04;;;;;;;15.40;6.57;;;;;;;10.94;97.16;102471.34;4781875;30;20363;-82
2021/10/10 07:31:30;;;;;;;11.75;6.25;;;;;;;10.96;96.90;102471.16;4782733;30;20027;-82
2021/10/10 07:33:56;;;;;;;12.60;6.65;;;;;;;10.98;96.34;102474.56;4782991;30;20039;-82
2021/10/10 07:36:21;;;;;;;11.60;6.30;;;;;;;10.91;96.66;102457.34;4767028;30;20055;-81
2021/10/10 07:38:47;;;;;;;12.85;6.18;;;;;;;11.05;96.48;102479.13;4767637;30;20040;-82
2021/10/10 07:41:13;;;;;;;10.88;5.60;;;;;;;10.91;96.42;102449.28;4767362;30;20078;-82
2021/10/10 07:43:40;;;;;;;10.38;6.00;;;;;;;10.94;96.31;102443.56;4766851;30;20035;-82
2021/10/10 07:46:08;;;;;;;14.70;6.45;;;;;;;11.18;96.74;102475.97;4777654;30;20035;-81
2021/10/10 07:48:34;;;;;;;14.25;6.80;;;;;;;11.14;96.71;102466.53;4768057;30;20117;-82
2021/10/10 07:51:00;;;;;;;12.30;6.63;;;;;;;11.28;96.70;102482.09;4763627;30;20040;-81
2021/10/10 07:53:25;;;;;;;12.18;6.53;;;;;;;11.35;96.41;102478.75;4779198;30;20118;-82
2021/10/10 07:55:51;;;;;;;11.90;6.57;;;;;;;11.39;96.46;102486.34;4768861;30;20032;-81
2021/10/10 07:58:16;;;;;;;13.45;6.35;;;;;;;11.44;96.75;102477.78;4766180;30;20046;-82
2021/10/10 08:00:41;;;;;;;12.55;6.43;;;;;;;11.31;96.52;102462.06;4753710;30;20031;-81
2021/10/10 08:03:07;;;;;;;11.70;6.28;;;;;;;11.44;95.84;102484.00;4767696;30;20035;-81
2021/10/10 08:05:43;;;;;;;13.95;6.03;;;;;;;11.49;95.41;102487.06;4768314;30;20040;-82
2021/10/10 08:08:11;;;;;;;9.23;5.57;;;;;;;11.52;95.01;102486.72;4784017;30;20122;-82
2021/10/10 08:10:37;;;;;;;9.23;5.80;;;;;;;11.61;94.63;102484.03;4771235;30;20039;-83
2021/10/10 08:13:03;;;;;;;10.60;5.82;;;;;;;11.65;94.42;102477.31;4773515;30;20032;-82
2021/10/10 08:15:29;;;;;;;9.98;6.07;;;;;;;11.74;93.76;102485.25;4786183;30;20051;-82
2021/10/10 08:17:54;;;;;;;11.95;6.30;;;;;;;11.82;93.24;102476.34;4769103;30;20024;-83
2021/10/10 08:20:20;;;;;;;13.20;5.95;;;;;;;11.70;93.07;102443.44;4751632;30;20064;-82
2021/10/10 08:22:47;;;;;;;14.00;6.25;;;;;;;11.87;92.50;102474.00;4784219;30;20035;-83
2021/10/10 08:25:15;;;;;;;14.10;6.07;;;;;;;11.98;92.04;102484.47;4784420;30;20063;-82
2021/10/10 08:27:44;;;;;;;13.20;5.85;;;;;;;12.02;91.82;102470.66;4758600;30;20040;-82
2021/10/10 08:30:14;;;;;;;14.02;6.68;;;;;;;11.99;91.20;102450.25;4751561;30;20032;-82
2021/10/10 08:32:40;;;;;;;14.70;6.10;;;;;;;12.21;91.11;102462.22;4769502;30;20038;-83
2021/10/10 08:35:08;;;;;;;12.85;5.70;;;;;;;12.02;90.35;102412.16;4770214;30;20038;-82
2021/10/10 08:37:34;;;;;;;12.48;5.70;;;;;;;12.49;89.99;102459.19;4767196;30;20427;-82
2021/10/10 08:39:59;;;;;;;12.15;6.10;;;;;;;12.66;89.23;102453.56;4784635;30;20039;-83
2021/10/10 08:42:32;;;;;;;12.07;5.25;;;;;;;12.75;89.05;102446.28;4769286;30;20095;-82
2021/10/10 08:45:05;;;;;;;10.55;5.43;;;;;;;12.97;88.65;102454.66;4771138;30;20039;-82
2021/10/10 08:47:32;;;;;;;12.43;5.28;;;;;;;12.91;88.21;102423.75;4770538;30;20118;-82
2021/10/10 08:49:57;;;;;;;12.02;5.43;;;;;;;13.11;87.49;102449.38;4771697;30;20069;-82
2021/10/10 08:52:23;;;;;;;11.02;5.60;;;;;;;13.22;86.66;102445.41;4785778;30;20032;-82
2021/10/10 08:54:50;;;;;;;7.90;5.25;;;;;;;13.34;85.78;102452.16;4772570;30;20035;-82
2021/10/10 08:57:16;;;;;;;10.25;5.40;;;;;;;13.47;85.43;102445.31;4786213;30;20039;-82
2021/10/10 08:59:45;;;;;;;10.48;5.57;;;;;;;13.57;84.86;102452.16;4759010;30;20028;-83
2021/10/10 09:02:18;;;;;;;12.00;5.78;;;;;;;13.54;83.82;102440.88;4787856;30;20036;-82
2021/10/10 09:04:43;;;;;;;11.02;6.00;;;;;;;13.50;83.74;102450.38;4773715;30;20043;-83
2021/10/10 09:07:09;;;;;;;10.70;5.40;;;;;;;13.29;83.46;102427.50;4774695;30;20040;-82
2021/10/10 09:09:36;;;;;;;9.45;5.45;;;;;;;13.33;83.43;102449.63;4791114;30;20050;-82
2021/10/10 09:12:12;;;;;;;11.35;5.18;;;;;;;13.28;82.71;102449.31;4792265;30;20055;-83
2021/10/10 09:14:43;;;;;;;10.25;5.63;;;;;;;13.17;82.89;102436.97;4762841;30;20048;-82
2021/10/10 09:17:13;;;;;;;8.45;5.28;;;;;;;13.10;83.21;102436.00;4777566;30;20117;-82
2021/10/10 09:19:38;;;;;;;10.23;5.53;;;;;;;13.03;83.22;102443.97;4794831;29;20032;-82
2021/10/10 09:22:06;;;;;;;11.55;5.50;;;;;;;13.00;84.06;102449.72;4795088;29;20050;-82
2021/10/10 09:24:35;;;;;;;11.40;5.35;;;;;;;12.81;84.50;102418.56;4791285;30;20048;-81
2021/10/10 09:27:05;;;;;;;11.88;6.10;;;;;;;12.92;84.82;102447.91;4760241;30;20039;-82
2021/10/10 09:29:35;;;;;;;13.25;6.25;;;;;;;12.79;84.88;102430.56;4792549;30;20031;-83
2021/10/10 09:32:26;;;;;;;10.10;5.85;;;;;;;12.86;85.12;102439.66;4792281;30;20030;-82
2021/10/10 09:34:52;;;;;;;11.10;5.03;;;;;;;12.87;85.18;102442.16;4775283;30;20039;-82
2021/10/10 09:39:56;;;;;;;13.07;5.60;;;;;;;12.83;85.26;102411.13;4791148;30;20016;-82
2021/10/10 09:42:41;;;;;;;10.57;5.82;;;;;;;12.87;84.68;102423.25;4775291;30;20051;-82
2021/10/10 09:45:22;;;;;;;10.65;5.70;;;;;;;12.93;84.66;102416.31;4775168;30;20039;-82
2021/10/10 09:48:01;;;;;;;8.00;4.97;;;;;;;12.98;84.79;102415.78;4775233;30;20131;-83
2021/10/10 09:50:33;;;;;;;12.52;5.70;;;;;;;12.97;84.14;102396.03;4789407;30;20036;-82
2021/10/10 09:53:11;;;;;;;14.70;5.50;;;;;;;13.13;83.36;102398.66;4774611;30;20038;-83
2021/10/10 09:55:56;;;;;;;10.07;5.15;;;;;;;13.15;82.14;102402.03;4760129;30;20094;-83
2021/10/10 09:58:41;;;;;;;12.55;6.25;;;;;;;13.30;82.91;102390.50;4792507;30;20059;-84
2021/10/10 10:01:12;;;;;;;9.50;4.95;;;;;;;13.39;82.56;102406.50;4760570;30;20024;-82
2021/10/10 10:04:00;;;;;;;11.32;5.60;;;;;;;13.39;82.00;102389.44;4789268;30;20040;-81
2021/10/10 10:06:36;;;;;;;11.50;5.50;;;;;;;13.37;82.09;102383.34;4789446;30;20024;-82
2021/10/10 10:09:08;;;;;;;13.07;5.70;;;;;;;13.34;81.87;102387.28;4789845;30;20432;-82
2021/10/10 10:11:39;;;;;;;13.35;5.07;;;;;;;13.30;82.29;102390.50;4772368;30;20024;-83
2021/10/10 10:14:09;;;;;;;12.23;5.00;;;;;;;12.92;82.76;102339.84;4777812;30;20032;-83
2021/10/10 10:16:38;;;;;;;10.13;4.65;;;;;;;13.09;82.93;102369.47;4775071;30;20028;-82
2021/10/10 10:19:06;;;;;;;12.10;5.47;;;;;;;13.12;82.68;102394.28;4790779;30;20024;-83
2021/10/10 10:21:32;;;;;;;11.45;5.20;;;;;;;13.10;82.61;102392.78;4775987;30;20064;-82
2021/10/10 10:24:02;;;;;;;12.45;5.97;;;;;;;13.04;82.64;102393.47;4777915;30;20043;-83
2021/10/10 10:26:30;;;;;;;10.63;5.20;;;;;;;12.95;82.89;102376.47;4775640;30;20038;-81
2021/10/10 10:28:57;;;;;;;11.98;5.25;;;;;;;12.91;82.73;102367.00;4764391;30;20032;-79
2021/10/10 10:31:23;;;;;;;14.55;5.38;;;;;;;12.86;83.03;102375.66;4750530;30;20050;-81
2021/10/10 10:33:49;;;;;;;11.82;5.70;;;;;;;12.35;83.23;102294.19;4762239;30;20240;-83
2021/10/10 10:36:14;;;;;;;13.75;5.57;;;;;;;12.86;83.49;102374.81;4788425;30;20375;-81
2021/10/10 10:38:44;;;;;;;13.55;5.30;;;;;;;12.83;83.30;102377.88;4782578;30;20059;-80
2021/10/10 10:41:50;;;;;;;11.02;5.13;;;;;;;12.83;83.70;102375.16;4780739;30;20091;-78
2021/10/10 10:44:43;;;;;;;;;;;;;;;12.78;83.91;102374.84;4788226;30;20036;-82
2021/10/10 10:47:14;;;;;;;11.85;5.38;;;;;;;12.65;83.28;102340.31;4769112;29;19904;-82
2021/10/10 10:49:46;;;;;;;14.13;5.85;;;;;;;12.82;83.41;102360.00;4792152;30;20108;-82
2021/10/10 10:52:34;;;;;;;14.80;5.85;;;;;;;12.90;82.77;102354.53;4776658;30;20037;-84
2021/10/10 10:55:14;;;;;;;10.75;5.70;;;;;;;13.00;83.12;102349.75;4775349;30;20013;-83
2021/10/10 10:57:48;;;;;;;12.52;6.00;;;;;;;11.88;82.81;102161.97;5031567;24;20066;-84
2021/10/10 11:13:04;;;;;;;12.52;5.88;;;;;;;13.54;81.85;102360.59;4808513;29;20059;-83
2021/10/10 11:15:50;;;;;;;11.38;5.40;;;;;;;12.72;81.25;102216.22;4806755;29;20050;-83
2021/10/10 11:18:18;;;;;;;9.93;5.32;;;;;;;12.20;81.60;102140.22;5273608;24;20051;-83
2021/10/10 11:20:52;;;;;;;15.80;5.82;;;;;;;12.96;82.23;102248.47;4828008;29;20070;-83
2021/10/10 11:23:18;;;;;;;10.68;5.95;;;;;;;12.75;82.24;102224.81;4809801;29;20367;-82
2021/10/10 11:25:45;;;;;;;10.95;5.90;;;;;;;12.74;82.01;102214.16;4824425;29;20049;-81
2021/10/10 11:28:11;;;;;;;15.02;5.95;;;;;;;13.50;81.87;102353.00;4809059;29;20046;-82
2021/10/10 11:30:38;;;;;;;12.45;5.60;;;;;;;12.29;81.61;102167.19;4826025;29;20019;-83
2021/10/10 11:40:59;;;;;;;14.38;5.47;;;;;;;11.96;81.74;102103.44;4773387;30;20056;-85
2021/10/10 11:46:00;;;;;;;12.52;5.25;;;;;;;12.42;82.33;102200.69;5416877;24;20095;-86